Warning: Javascript must be enabled to use all the features on this page!


Page Loading - Please Wait...

Click to hideNews Bulletins

Peak Streamflow for the Nation

USGS 02479980 CROOKED CREEK NEAR FAIRVIEW, AL.

Mobile County, Alabama
Hydrologic Unit Code 03170008
Latitude  30°46'48", Longitude  88°19'08" NAD27
Drainage area 8.08  square miles
Contributing drainage area 8.08  square miles
Gage datum 115 feet above NGVD29
Output formats
Table
Graph
Tab-separated file
peakfq (watstore) format
Reselect output format
Water
Year
Date Gage
Height
(feet)
Stream-
flow
(cfs)
1991 1991-01-07 5.22 490
1992 1992-02-17 4.76 360
1993 1993-01-21 6.99 1,200
1994 1994-06-25 5.12 450
1995 1995-05-10 7.44 1,420
1996 1995-12-18 8.59 2,200
1997 1997-07-19 6.38 910
1998 1998-09-28 7.11 1,250
1999 1999-03-14 6.22 840
2000 2000-03-29 4.60 320
2001 2001-03-03 4.59 318
2002 2002-09-26 5.92 720
2003 2003-07-01 5.21 485
2004 2004-09-16 5.96 725
2005 2005-07-06 7.08 1,200
2006 2005-12-15 4.11 130
2007 2006-11-15 7.25 1,300
2008 2008-04-05 6.53 940
2009 2009-03-28 6.40 900
2010 2010-01-21 5.69 620
2011 2011-09-05 4.78 331
2012 2012-05-02 6.13 782
2013 2013-02-26 5.69 618
2014 2014-04-30 5.95 713
2015 2015-05-17 5.59 685
2016 2015-12-23 4.71 367
2017 2017-01-02 6.41 930
2018 2017-10-08 5.29 513
2019 2019-05-11 4.81 377